createdAt,value
2023-04-27T00:02:30.948Z,15.88
2023-04-27T00:05:39.532Z,15.74
2023-04-27T00:08:42.301Z,15.93
2023-04-27T00:11:46.933Z,16.00
2023-04-27T00:14:49.626Z,16.08
2023-04-27T00:17:52.082Z,16.19
2023-04-27T00:20:55.107Z,16.33
2023-04-27T00:23:58.112Z,16.39
2023-04-27T00:27:00.761Z,16.48
2023-04-27T00:30:06.383Z,16.47
2023-04-27T00:33:09.422Z,16.51
2023-04-27T00:36:11.975Z,16.51
2023-04-27T00:39:17.428Z,16.49
2023-04-27T00:42:19.903Z,16.51
2023-04-27T00:45:29.955Z,16.52
2023-04-27T00:48:32.677Z,16.53
2023-04-27T00:51:35.589Z,16.59
2023-04-27T00:54:38.425Z,16.52
2023-04-27T00:57:41.069Z,16.55
2023-04-27T01:00:43.637Z,16.55
2023-04-27T01:03:47.910Z,16.55
2023-04-27T01:06:53.859Z,16.55
2023-04-27T01:09:57.085Z,16.53
2023-04-27T01:13:00.964Z,16.53
2023-04-27T01:16:03.974Z,16.56
2023-04-27T01:19:08.595Z,16.53
2023-04-27T01:22:15.702Z,16.55
2023-04-27T01:25:17.937Z,16.55
2023-04-27T01:28:22.114Z,16.51
2023-04-27T01:31:24.525Z,16.49
2023-04-27T01:34:33.732Z,16.49
2023-04-27T01:37:36.239Z,16.53
2023-04-27T01:40:43.734Z,16.49
2023-04-27T01:43:46.176Z,16.52
2023-04-27T01:46:48.875Z,16.51
2023-04-27T01:49:52.702Z,16.45
2023-04-27T01:52:56.457Z,16.47
2023-04-27T01:55:59.990Z,16.47
2023-04-27T01:59:02.715Z,16.45
2023-04-27T02:02:05.184Z,16.45
2023-04-27T02:05:08.326Z,16.48
2023-04-27T02:08:11.051Z,16.48
2023-04-27T02:11:14.654Z,16.45
2023-04-27T02:14:16.990Z,16.44
2023-04-27T02:17:26.135Z,16.47
2023-04-27T02:20:31.392Z,16.45
2023-04-27T02:23:36.143Z,16.48
2023-04-27T02:26:38.574Z,16.47
2023-04-27T02:29:41.519Z,16.44
2023-04-27T02:32:44.346Z,16.44
2023-04-27T02:35:47.662Z,16.48
2023-04-27T02:38:49.776Z,16.44
2023-04-27T02:41:52.783Z,16.42
2023-04-27T02:44:55.180Z,16.42
2023-04-27T02:47:58.607Z,16.41
2023-04-27T02:51:06.297Z,16.42
2023-04-27T02:54:13.796Z,16.38
2023-04-27T02:57:15.902Z,16.39
2023-04-27T03:00:19.022Z,16.39
2023-04-27T03:03:21.980Z,16.39
2023-04-27T03:06:25.824Z,16.35
2023-04-27T03:09:28.853Z,16.36
2023-04-27T03:12:35.762Z,16.39
2023-04-27T03:15:37.870Z,16.38
2023-04-27T03:18:47.573Z,16.35
2023-04-27T03:21:49.902Z,16.36
2023-04-27T03:24:53.928Z,16.36
2023-04-27T03:27:56.656Z,16.35
2023-04-27T03:31:01.360Z,16.36
2023-04-27T03:34:03.327Z,16.35
2023-04-27T03:37:07.891Z,16.36
2023-04-27T03:40:18.784Z,16.32
2023-04-27T03:43:22.371Z,16.36
2023-04-27T03:46:24.870Z,16.35
2023-04-27T03:49:29.060Z,16.30
2023-04-27T03:52:31.903Z,16.33
2023-04-27T03:55:39.397Z,16.35
2023-04-27T03:58:42.237Z,16.32
2023-04-27T04:02:00.891Z,16.29
2023-04-27T04:05:23.776Z,16.29
2023-04-27T04:08:29.165Z,16.29
2023-04-27T04:11:31.851Z,16.29
2023-04-27T04:14:36.307Z,16.33
2023-04-27T04:17:38.532Z,16.30
2023-04-27T04:20:41.437Z,16.28
2023-04-27T04:23:44.123Z,16.29
2023-04-27T04:26:47.740Z,16.29
2023-04-27T04:29:50.550Z,16.35
2023-04-27T04:32:53.240Z,16.28
2023-04-27T04:35:56.057Z,16.30
2023-04-27T04:38:59.670Z,16.28
2023-04-27T04:42:04.153Z,16.28
2023-04-27T04:45:08.541Z,16.32
2023-04-27T04:48:11.710Z,16.29
2023-04-27T04:51:14.157Z,16.29
2023-04-27T04:54:16.664Z,16.29
2023-04-27T04:57:19.368Z,16.32
2023-04-27T05:00:23.015Z,16.32
2023-04-27T05:03:26.310Z,16.30
2023-04-27T05:06:28.605Z,16.30
2023-04-27T05:09:31.237Z,16.29
2023-04-27T05:12:33.728Z,16.32
2023-04-27T05:15:38.230Z,16.35
2023-04-27T05:18:40.585Z,16.35
2023-04-27T05:21:43.015Z,16.36
2023-04-27T05:24:45.237Z,16.33
2023-04-27T05:27:48.147Z,16.42
2023-04-27T05:30:50.625Z,16.44
2023-04-27T05:33:53.457Z,16.44
2023-04-27T05:36:55.748Z,16.44
2023-04-27T05:39:59.042Z,16.41
2023-04-27T05:43:05.569Z,16.45
2023-04-27T05:46:08.606Z,16.44
2023-04-27T05:49:10.851Z,16.44
2023-04-27T05:52:16.685Z,16.44
2023-04-27T05:55:18.649Z,16.41
2023-04-27T05:58:22.540Z,16.41
2023-04-27T06:01:24.465Z,16.44
2023-04-27T06:04:27.091Z,16.48
2023-04-27T06:07:29.105Z,16.47
2023-04-27T06:10:31.423Z,16.49
2023-04-27T06:13:40.934Z,16.49
2023-04-27T06:16:44.967Z,16.52
2023-04-27T06:19:47.137Z,16.49
2023-04-27T06:22:49.434Z,16.52
2023-04-27T06:25:51.514Z,16.55
2023-04-27T06:28:54.975Z,16.51
2023-04-27T06:31:57.030Z,16.56
2023-04-27T06:34:59.361Z,16.56
2023-04-27T06:38:01.576Z,16.60
2023-04-27T06:41:15.307Z,16.59
2023-04-27T06:44:17.426Z,16.65
2023-04-27T06:47:19.841Z,16.68
2023-04-27T06:50:21.789Z,16.69
2023-04-27T06:53:24.178Z,16.72
2023-04-27T06:56:26.261Z,16.68
2023-04-27T06:59:28.503Z,16.70
2023-04-27T07:02:31.921Z,16.69
2023-04-27T07:05:34.654Z,16.73
2023-04-27T07:08:37.106Z,16.75
2023-04-27T07:11:40.780Z,16.70
2023-04-27T07:14:43.077Z,16.76
2023-04-27T07:17:45.486Z,16.83
2023-04-27T07:20:47.811Z,16.84
2023-04-27T07:23:56.160Z,16.84
2023-04-27T07:26:59.384Z,16.83
2023-04-27T07:30:02.225Z,16.84
2023-04-27T07:33:04.713Z,16.87
2023-04-27T07:36:07.524Z,16.87
2023-04-27T07:47:11.013Z,16.90
2023-04-27T07:50:17.172Z,16.87
2023-04-27T07:53:19.462Z,16.90
2023-04-27T07:56:22.169Z,16.89
2023-04-27T07:59:24.379Z,16.90
2023-04-27T08:02:31.840Z,16.90
2023-04-27T08:05:34.830Z,16.96
2023-04-27T08:08:38.356Z,16.94
2023-04-27T08:11:40.923Z,16.96
2023-04-27T08:14:49.679Z,17.02
2023-04-27T08:17:56.869Z,17.02
2023-04-27T08:21:15.856Z,17.02
2023-04-27T08:28:27.261Z,17.03
2023-04-27T08:31:31.132Z,17.03
2023-04-27T08:34:33.490Z,17.06
2023-04-27T08:37:38.119Z,17.10
2023-04-27T08:40:48.592Z,17.13
2023-04-27T08:43:54.782Z,17.14
2023-04-27T08:46:57.296Z,17.13
2023-04-27T08:50:03.394Z,17.16
2023-04-27T08:53:07.597Z,17.19
2023-04-27T08:56:10.219Z,17.20
2023-04-27T08:59:16.863Z,17.21
2023-04-27T09:02:20.685Z,17.23
2023-04-27T09:05:23.783Z,17.27
2023-04-27T09:08:26.384Z,17.26
2023-04-27T09:11:29.936Z,17.31
2023-04-27T09:14:36.136Z,17.60
2023-04-27T09:17:39.045Z,17.82
2023-04-27T09:20:49.328Z,17.73
2023-04-27T09:23:52.428Z,17.84
2023-04-27T09:26:54.702Z,17.85
2023-04-27T09:29:56.858Z,17.88
2023-04-27T09:33:04.473Z,17.86
2023-04-27T09:36:06.900Z,17.89
2023-04-27T09:39:09.323Z,17.89
2023-04-27T09:42:12.942Z,17.89
2023-04-27T09:45:16.246Z,17.92
2023-04-27T09:48:18.836Z,17.95
2023-04-27T09:51:21.132Z,17.98
2023-04-27T09:54:27.473Z,17.95
2023-04-27T09:57:54.942Z,17.99
2023-04-27T10:01:15.730Z,18.01
2023-04-27T10:04:54.809Z,18.04
2023-04-27T10:07:57.044Z,18.06
2023-04-27T10:10:59.325Z,18.06
2023-04-27T10:14:08.147Z,18.08
2023-04-27T10:17:11.267Z,18.09
2023-04-27T10:20:13.314Z,18.15
2023-04-27T10:23:27.686Z,18.19
2023-04-27T10:26:29.777Z,18.21
2023-04-27T10:29:43.724Z,18.24
2023-04-27T10:32:56.487Z,18.22
2023-04-27T10:36:00.315Z,18.22
2023-04-27T10:39:02.534Z,18.24
2023-04-27T10:42:05.582Z,18.26
2023-04-27T10:45:08.478Z,18.24
2023-04-27T10:48:18.348Z,18.29
2023-04-27T10:51:20.808Z,18.33
2023-04-27T10:54:31.642Z,18.37
2023-04-27T10:57:34.519Z,18.36
2023-04-27T11:00:44.051Z,18.40
2023-04-27T11:03:58.071Z,18.43
2023-04-27T11:07:01.778Z,18.52
2023-04-27T11:10:04.256Z,18.55
2023-04-27T11:21:39.435Z,18.55
2023-04-27T11:25:01.084Z,18.59
2023-04-27T11:28:04.591Z,18.59
2023-04-27T11:31:07.878Z,18.63
2023-04-27T11:34:16.286Z,18.64
2023-04-27T11:37:27.116Z,18.66
2023-04-27T11:40:30.005Z,18.67
2023-04-27T11:43:32.781Z,18.71
2023-04-27T11:46:37.023Z,18.73
2023-04-27T11:49:39.539Z,18.73
2023-04-27T11:52:42.552Z,18.77
2023-04-27T11:55:45.337Z,18.76
2023-04-27T11:58:48.667Z,18.80
2023-04-27T12:01:52.095Z,18.76
2023-04-27T12:04:55.242Z,18.80
2023-04-27T12:07:58.375Z,18.83
2023-04-27T12:11:01.055Z,18.89
2023-04-27T12:14:03.346Z,18.86
2023-04-27T12:17:18.864Z,18.90
2023-04-27T12:20:22.148Z,18.93
2023-04-27T12:24:05.041Z,18.94
2023-04-27T12:28:02.495Z,18.84
2023-04-27T12:31:39.505Z,18.87
2023-04-27T12:34:42.905Z,18.90
2023-04-27T12:38:16.103Z,18.97
2023-04-27T12:49:17.346Z,19.08
2023-04-27T12:52:21.012Z,19.11
2023-04-27T12:55:54.512Z,19.14
2023-04-27T12:59:04.789Z,19.17
2023-04-27T13:06:12.108Z,19.24
2023-04-27T13:09:14.325Z,19.27
2023-04-27T13:12:18.148Z,19.31
2023-04-27T13:15:23.472Z,19.38
2023-04-27T13:18:25.892Z,19.42
2023-04-27T13:21:30.376Z,19.41
2023-04-27T13:24:33.328Z,19.45
2023-04-27T13:27:37.651Z,19.50
2023-04-27T13:30:40.653Z,19.52
2023-04-27T13:33:44.696Z,19.52
2023-04-27T13:36:49.445Z,19.58
2023-04-27T13:39:52.795Z,19.59
2023-04-27T13:42:55.992Z,19.65
2023-04-27T13:46:01.150Z,19.69
2023-04-27T13:49:04.641Z,19.69
2023-04-27T13:52:07.154Z,19.69
2023-04-27T13:55:11.438Z,19.72
2023-04-27T13:58:14.580Z,19.73
2023-04-27T14:01:18.170Z,19.69
2023-04-27T14:04:20.923Z,19.78
2023-04-27T14:07:24.200Z,19.81
2023-04-27T14:10:28.903Z,19.52
2023-04-27T14:13:31.094Z,19.65
2023-04-27T14:16:33.528Z,19.61
2023-04-27T14:19:35.958Z,19.39
2023-04-27T14:22:38.529Z,19.14
2023-04-27T14:25:41.963Z,19.08
2023-04-27T14:28:44.253Z,18.99
2023-04-27T14:31:47.975Z,18.86
2023-04-27T14:34:50.881Z,18.99
2023-04-27T14:37:57.065Z,18.81
2023-04-27T14:41:05.527Z,18.49
2023-04-27T14:44:10.378Z,18.32
2023-04-27T14:47:15.545Z,18.32
2023-04-27T14:50:20.689Z,18.40
2023-04-27T14:53:48.528Z,17.81
2023-04-27T14:56:50.678Z,17.58
2023-04-27T14:59:56.254Z,17.40
2023-04-27T15:04:14.811Z,17.53
2023-04-27T15:07:22.681Z,17.67
2023-04-27T15:10:25.182Z,17.67
2023-04-27T15:13:28.050Z,17.71
2023-04-27T15:16:32.281Z,17.14
2023-04-27T15:19:35.021Z,17.24
2023-04-27T15:22:42.559Z,17.34
2023-04-27T15:25:47.504Z,17.35
2023-04-27T15:29:17.743Z,17.30
2023-04-27T15:32:18.605Z,17.37
2023-04-27T15:35:26.631Z,17.53
2023-04-27T15:38:29.205Z,17.89
2023-04-27T15:41:31.515Z,17.51
2023-04-27T15:44:34.941Z,17.92
2023-04-27T15:47:37.693Z,17.86
2023-04-27T15:50:41.622Z,17.41
2023-04-27T15:53:46.839Z,17.70
2023-04-27T15:56:49.539Z,17.48
2023-04-27T15:59:52.841Z,17.44
2023-04-27T16:02:55.755Z,17.53
2023-04-27T16:05:58.195Z,17.48
2023-04-27T16:09:04.458Z,17.81
2023-04-27T16:12:07.540Z,18.02
2023-04-27T16:15:14.548Z,17.55
2023-04-27T16:18:16.928Z,17.35
2023-04-27T16:21:19.816Z,17.48
2023-04-27T16:24:22.936Z,17.54
2023-04-27T16:27:29.922Z,17.35
2023-04-27T16:30:39.144Z,17.41
2023-04-27T16:33:44.897Z,17.41
2023-04-27T16:36:50.062Z,17.61
2023-04-27T16:39:53.097Z,17.34
2023-04-27T16:42:55.345Z,17.31
2023-04-27T16:46:00.365Z,17.14
2023-04-27T16:49:02.788Z,17.26
2023-04-27T16:57:09.259Z,17.02
2023-04-27T17:00:17.995Z,17.37
2023-04-27T17:03:22.327Z,17.30
2023-04-27T17:09:43.445Z,17.89
2023-04-27T17:12:45.761Z,17.64
2023-04-27T17:15:49.871Z,17.73
2023-04-27T17:18:52.944Z,17.79
2023-04-27T17:21:59.686Z,17.78
2023-04-27T17:25:05.942Z,18.16
2023-04-27T17:28:08.384Z,18.09
2023-04-27T17:31:14.811Z,17.98
2023-04-27T17:34:19.129Z,18.02
2023-04-27T17:37:29.168Z,18.01
2023-04-27T17:40:32.035Z,17.94
2023-04-27T17:43:37.759Z,18.08
2023-04-27T17:46:47.751Z,18.22
2023-04-27T17:49:51.379Z,18.22
2023-04-27T17:52:54.488Z,18.40
2023-04-27T17:55:57.829Z,18.28
2023-04-27T17:59:00.111Z,18.57
2023-04-27T18:02:03.136Z,18.71
2023-04-27T18:05:06.890Z,18.40
2023-04-27T18:08:09.862Z,18.55
2023-04-27T18:11:12.030Z,18.77
2023-04-27T18:14:18.754Z,18.94
2023-04-27T18:17:21.839Z,19.01
2023-04-27T18:20:26.108Z,19.08
2023-04-27T18:23:29.859Z,19.11
2023-04-27T18:26:39.509Z,19.12
2023-04-27T18:29:41.792Z,19.21
2023-04-27T18:32:45.859Z,19.22
2023-04-27T18:35:51.186Z,19.25
2023-04-27T18:38:55.971Z,19.22
2023-04-27T18:41:58.972Z,19.25
2023-04-27T18:45:03.612Z,19.27
2023-04-27T18:48:05.858Z,19.27
2023-04-27T18:51:11.381Z,19.28
2023-04-27T18:54:19.009Z,19.36
2023-04-27T18:57:34.838Z,19.41
2023-04-27T19:00:38.646Z,19.42
2023-04-27T19:03:41.662Z,19.44
2023-04-27T19:06:45.445Z,19.45
2023-04-27T19:09:49.068Z,19.44
2023-04-27T19:12:51.658Z,19.47
2023-04-27T19:15:54.693Z,19.51
2023-04-27T19:18:57.748Z,19.52
2023-04-27T19:22:05.671Z,19.51
2023-04-27T19:25:08.536Z,19.52
2023-04-27T19:28:11.636Z,19.52
2023-04-27T19:31:15.699Z,19.51
2023-04-27T19:34:22.544Z,19.54
2023-04-27T19:37:26.479Z,19.52
2023-04-27T19:40:29.713Z,19.51
2023-04-27T19:43:32.800Z,19.45
2023-04-27T19:46:37.235Z,19.38
2023-04-27T19:49:39.694Z,19.36
2023-04-27T19:52:42.958Z,19.32
2023-04-27T19:55:47.283Z,19.24
2023-04-27T19:58:49.916Z,19.24
2023-04-27T20:01:52.526Z,19.18
2023-04-27T20:04:55.533Z,19.15
2023-04-27T20:07:58.030Z,19.11
2023-04-27T20:11:00.979Z,19.10
2023-04-27T20:14:06.197Z,19.07
2023-04-27T20:17:08.928Z,19.03
2023-04-27T20:20:15.290Z,19.00
2023-04-27T20:23:19.492Z,18.91
2023-04-27T20:26:22.636Z,18.91
2023-04-27T20:29:39.843Z,18.91
2023-04-27T20:32:45.961Z,18.86
2023-04-27T20:35:49.096Z,18.83
2023-04-27T20:38:51.381Z,18.80
2023-04-27T20:41:54.788Z,18.79
2023-04-27T20:45:05.976Z,18.76
2023-04-27T20:48:20.264Z,18.70
2023-04-27T20:54:52.599Z,18.66
2023-04-27T20:57:55.231Z,18.63
2023-04-27T21:00:58.458Z,18.64
2023-04-27T21:04:01.836Z,18.69
2023-04-27T21:07:06.489Z,18.71
2023-04-27T21:10:09.508Z,18.71
2023-04-27T21:13:13.918Z,18.79
2023-04-27T21:16:42.958Z,18.80
2023-04-27T21:19:46.691Z,18.81
2023-04-27T21:22:49.159Z,18.83
2023-04-27T21:25:53.184Z,18.89
2023-04-27T21:28:57.224Z,18.87
2023-04-27T21:32:00.354Z,18.94
2023-04-27T21:35:08.969Z,18.97
2023-04-27T21:38:11.710Z,18.99
2023-04-27T21:41:27.164Z,18.93
2023-04-27T21:44:38.549Z,18.96
2023-04-27T21:47:40.898Z,19.01
2023-04-27T21:50:43.643Z,19.03
2023-04-27T21:53:47.676Z,19.03
2023-04-27T22:06:39.212Z,19.03
2023-04-27T22:09:42.190Z,19.01
2023-04-27T22:12:44.934Z,19.10
2023-04-27T22:15:48.307Z,19.08
2023-04-27T22:18:51.920Z,19.08
2023-04-27T22:21:54.488Z,19.08
2023-04-27T22:24:57.091Z,19.08
2023-04-27T22:27:59.389Z,19.11
2023-04-27T22:31:02.306Z,19.12
2023-04-27T22:34:05.722Z,19.11
2023-04-27T22:37:08.621Z,19.07
2023-04-27T22:40:14.216Z,19.06
2023-04-27T22:43:18.188Z,19.08
2023-04-27T22:46:21.409Z,19.12
2023-04-27T22:49:24.672Z,19.12
2023-04-27T22:52:26.947Z,19.12
2023-04-27T22:55:30.575Z,19.14
2023-04-27T22:58:32.745Z,19.14
2023-04-27T23:01:35.569Z,19.14
2023-04-27T23:04:38.150Z,19.17
2023-04-27T23:07:44.862Z,19.14
2023-04-27T23:10:46.862Z,19.18
2023-04-27T23:13:50.909Z,19.20
2023-04-27T23:16:53.099Z,19.14
2023-04-27T23:20:01.367Z,19.12
2023-04-27T23:23:03.426Z,19.11
2023-04-27T23:26:15.331Z,19.08
2023-04-27T23:29:18.596Z,19.03
2023-04-27T23:32:21.338Z,19.00
2023-04-27T23:35:23.420Z,18.97
2023-04-27T23:38:26.266Z,18.94
2023-04-27T23:41:28.995Z,18.89
2023-04-27T23:44:31.522Z,18.87
2023-04-27T23:47:34.476Z,18.84
2023-04-27T23:50:37.812Z,18.81
2023-04-27T23:53:39.797Z,18.76
2023-04-27T23:56:42.301Z,18.73
2023-04-27T23:59:44.986Z,18.67
